WetterOnline ( https://www.wetteronline.de )

Wetter aktuell Brålanda

Aktuelles Wetter: Satenas (54m)

6-stündlich | Neueste Meldungen
Ortszeit Temperatur Wetter
Di, 11.08. 8:00 15.5° C wolkig
Di, 11.08. 2:00 18.7° C bedeckt
Mo, 10.08. 20:00 21.9° C bewölkt
Mo, 10.08. 14:00 21.9° C wolkig
Mo, 10.08. 8:00 17.5° C bewölkt
Mo, 10.08. 2:00 16.6° C wolkenlos
So, 09.08. 20:00 23.5° C wolkenlos
So, 09.08. 14:00 24.7° C wolkenlos
Ortszeit Temperatur Wetter
Di, 11.08. 12:20 21° C leicht bewölkt
Di, 11.08. 12:00 20.7° C leicht bewölkt
Di, 11.08. 11:50 21° C leicht bewölkt
Di, 11.08. 11:20 20° C bewölkt
Di, 11.08. 11:00 19.2° C bewölkt
Di, 11.08. 10:50 19° C bewölkt
Di, 11.08. 10:20 18° C bewölkt
Di, 11.08. 10:00 17.6° C bewölkt
Di, 11.08. 9:20 17° C bewölkt
Di, 11.08. 9:00 16.4° C bewölkt
Ortszeit Relative Feuchte Sichtweite
Di, 11.08. 8:00 86% 55 km
Di, 11.08. 2:00 91% 45 km
Mo, 10.08. 20:00 76% 45 km
Mo, 10.08. 14:00 79% 45 km
Mo, 10.08. 8:00 95% 50 km
Mo, 10.08. 2:00 99% 40 km
So, 09.08. 20:00 77% 45 km
So, 09.08. 14:00 67% 35 km
Ortszeit Relative Feuchte Sichtweite
Di, 11.08. 12:20 64% >10 km
Di, 11.08. 12:00 68% 55 km
Di, 11.08. 11:50 69% >10 km
Di, 11.08. 11:20 68% >10 km
Di, 11.08. 11:00 75% 50 km
Di, 11.08. 10:50 78% >10 km
Di, 11.08. 10:20 83% >10 km
Di, 11.08. 10:00 80% 60 km
Di, 11.08. 9:20 83% >10 km
Di, 11.08. 9:00 83% 55 km
Ortszeit Niederschlagsmenge Niederschlagsart
Di, 11.08. 8:00 0.0 l/m2 in 12 Std. -
Di, 11.08. 2:00 0.0 l/m2 -
Mo, 10.08. 20:00 0.0 l/m2 in 12 Std. -
Mo, 10.08. 14:00 0.0 l/m2 -
Mo, 10.08. 8:00 0.0 l/m2 -
Mo, 10.08. 2:00 0.0 l/m2 -
So, 09.08. 20:00 0.0 l/m2 in 12 Std. -
So, 09.08. 14:00 0.0 l/m2 -
Ortszeit Niederschlagsmenge Niederschlagsart
Di, 11.08. 12:20 keine Meldung -
Di, 11.08. 12:00 0.0 l/m2 in 1 Std. -
Di, 11.08. 11:50 keine Meldung -
Di, 11.08. 11:20 keine Meldung -
Di, 11.08. 11:00 0.0 l/m2 in 1 Std. -
Di, 11.08. 10:50 keine Meldung -
Di, 11.08. 10:20 keine Meldung -
Di, 11.08. 10:00 0.0 l/m2 in 1 Std. -
Di, 11.08. 9:20 keine Meldung -
Di, 11.08. 9:00 0.0 l/m2 in 1 Std. -
Ortszeit Stärke Spitze Richtung
km/h Bft. km/h Grad Sektor
Di, 11.08. 8:00 7 2 - 110° O
Di, 11.08. 2:00 18 3 22 120° SO
Mo, 10.08. 20:00 11 2 - 90° O
Mo, 10.08. 14:00 18 3 29 80° O
Mo, 10.08. 8:00 18 3 25 80° O
Mo, 10.08. 2:00 11 2 14 80° O
So, 09.08. 20:00 4 1 - 50° NO
So, 09.08. 14:00 11 2 18 360° N
Ortszeit Stärke Spitze Richtung
km/h Bft. km/h Grad Sektor
Di, 11.08. 12:20 9 2 - 110° O
Di, 11.08. 12:00 11 2 18 160° S
Di, 11.08. 11:50 9 2 - 160° S
Di, 11.08. 11:20 13 3 - 120° SO
Di, 11.08. 11:00 14 3 22 120° SO
Di, 11.08. 10:50 15 3 - 130° SO
Di, 11.08. 10:20 11 2 - 130° SO
Di, 11.08. 10:00 14 3 18 120° SO
Di, 11.08. 9:20 9 2 - 130° SO
Di, 11.08. 9:00 7 2 14 110° O
Ortszeit Untergrenze Bedeckung Gattung
total tief tief mittel hoch
Di, 11.08. 8:00 750 m 7/8 5/8 Cb - -
Di, 11.08. 2:00 1020 m 8/8 8/8 - - -
Mo, 10.08. 20:00 1290 m 7/8 7/8 - - -
Mo, 10.08. 14:00 810 m 5/8 5/8 Sc - -
Mo, 10.08. 8:00 360 m 7/8 7/8 Sc - -
Mo, 10.08. 2:00 - 0/8 0/8 - - -
So, 09.08. 20:00 - 0/8 0/8 - - -
So, 09.08. 14:00 - 0/8 0/8 - - -
Ortszeit Bedeckungsgrad in Achtel und Wolkenuntergrenze
Di, 11.08. 12:20 1-2(1110m)
Di, 11.08. 12:00 1(900m) 3(1050m)
Di, 11.08. 11:50 1-2(1080m)
Di, 11.08. 11:20 5-7(1050m)
Di, 11.08. 11:00 7(990m)
Di, 11.08. 10:50 5-7(990m)
Di, 11.08. 10:20 5-7(930m)
Di, 11.08. 10:00 3(810m) 7(930m)
Di, 11.08. 9:20 5-7(810m) 1-2(930m)
Di, 11.08. 9:00 1(630m) 6(870m)
Ortszeit Luftdruck NN (hPa) Tendenz (hPa in 3 Std.)
Di, 11.08. 8:00 1026 + 0,8
Di, 11.08. 2:00 1024 + 0,7
Mo, 10.08. 20:00 1022 - 0,1
Mo, 10.08. 14:00 1023 0,0
Mo, 10.08. 8:00 1022 + 0,9
Mo, 10.08. 2:00 1020 0,0
So, 09.08. 20:00 1020 - 0,4
So, 09.08. 14:00 1021 - 0,4
Ortszeit Luftdruck NN (hPa) Tendenz (hPa in 3 Std.)
Di, 11.08. 12:20 1026 keine Meldung
Di, 11.08. 12:00 1026 0,0
Di, 11.08. 11:50 1026 keine Meldung
Di, 11.08. 11:20 1026 keine Meldung
Di, 11.08. 11:00 1026 + 0,5
Di, 11.08. 10:50 1026 keine Meldung
Di, 11.08. 10:20 1026 keine Meldung
Di, 11.08. 10:00 1026 + 0,7
Di, 11.08. 9:20 1026 keine Meldung
Di, 11.08. 9:00 1026 + 0,8
Ortszeit Schneehöhe (cm)
Di, 11.08. 8:00 0
Di, 11.08. 2:00 -
Mo, 10.08. 20:00 -
Mo, 10.08. 14:00 -
Mo, 10.08. 8:00 -
Mo, 10.08. 2:00 -
So, 09.08. 20:00 -
So, 09.08. 14:00 -
Ortszeit Schneehöhe (cm)
Di, 11.08. 12:20 -
Di, 11.08. 12:00 -
Di, 11.08. 11:50 -
Di, 11.08. 11:20 -
Di, 11.08. 11:00 -
Di, 11.08. 10:50 -
Di, 11.08. 10:20 -
Di, 11.08. 10:00 -
Di, 11.08. 9:20 -
Di, 11.08. 9:00 -
Link zu dieser Seite / Seite empfehlen

Das Wetter in ...